Terminal Aerodrome Forecast
Issued by NWS

Home | Current Version | Previous Version | Text Only | Print | Product List | Glossary On
Versions: 1 2 3 4 5 6 7 8 9 10 11 12 13 14
000
FTUS45 KFGZ 282320
TAFPRC
TAF
KPRC 282320Z 2900/2924 26012G20KT P6SM BKN060
      TEMPO 2900/2903 -SHRA OVC035
     FM290300 25007KT P6SM SCT060
     FM291800 25010G20KT P6SM BKN050=

USA.gov is the U.S. government's official web portal to all federal, state and local government web resources and services.